createdAt,value
2019-01-17T00:00:40.623Z,6.60
2019-01-17T00:03:21.963Z,6.60
2019-01-17T00:06:26.079Z,6.50
2019-01-17T00:09:27.115Z,6.60
2019-01-17T00:12:15.009Z,6.50
2019-01-17T00:14:54.839Z,6.50
2019-01-17T00:17:42.666Z,6.60
2019-01-17T00:20:32.053Z,6.50
2019-01-17T00:23:12.154Z,6.50
2019-01-17T00:26:07.144Z,6.50
2019-01-17T00:29:08.564Z,6.50
2019-01-17T00:31:49.368Z,6.50
2019-01-17T00:34:50.893Z,6.40
2019-01-17T00:37:32.024Z,6.50
2019-01-17T00:40:27.255Z,6.50
2019-01-17T00:43:16.457Z,6.50
2019-01-17T00:46:08.671Z,6.60
2019-01-17T00:48:57.900Z,6.50
2019-01-17T00:51:45.457Z,6.40
2019-01-17T00:54:34.766Z,6.40
2019-01-17T00:57:42.125Z,6.40
2019-01-17T01:00:42.368Z,6.40
2019-01-17T01:03:20.505Z,6.40
2019-01-17T01:06:24.912Z,6.50
2019-01-17T01:09:12.512Z,6.50
2019-01-17T01:11:55.733Z,6.60
2019-01-17T01:14:39.927Z,6.60
2019-01-17T01:17:30.476Z,6.80
2019-01-17T01:20:19.653Z,6.70
2019-01-17T01:23:02.548Z,6.80
2019-01-17T01:25:51.788Z,6.80
2019-01-17T01:28:39.404Z,6.80
2019-01-17T01:31:40.561Z,6.80
2019-01-17T01:34:19.860Z,6.70
2019-01-17T01:37:06.745Z,6.80
2019-01-17T01:39:54.579Z,6.70
2019-01-17T01:42:39.247Z,6.70
2019-01-17T01:45:26.972Z,6.60
2019-01-17T01:48:16.204Z,6.60
2019-01-17T01:51:08.439Z,6.50
2019-01-17T01:53:39.972Z,6.40
2019-01-17T01:56:10.308Z,6.40
2019-01-17T01:58:40.549Z,6.40
2019-01-17T02:01:10.714Z,6.30
2019-01-17T02:03:40.909Z,6.40
2019-01-17T02:06:11.144Z,6.60
2019-01-17T02:08:41.448Z,6.60
2019-01-17T02:11:11.675Z,6.70
2019-01-17T02:13:42.648Z,6.70
2019-01-17T02:16:12.867Z,6.90
2019-01-17T02:18:43.112Z,6.80
2019-01-17T02:21:13.380Z,6.70
2019-01-17T02:23:43.656Z,6.70
2019-01-17T02:26:13.896Z,6.80
2019-01-17T02:28:44.068Z,6.70
2019-01-17T02:31:14.232Z,6.70
2019-01-17T02:33:44.399Z,6.60
2019-01-17T02:36:14.563Z,6.80
2019-01-17T02:38:44.728Z,6.80
2019-01-17T02:41:14.903Z,6.80
2019-01-17T02:43:45.122Z,6.70
2019-01-17T02:46:15.387Z,6.60
2019-01-17T02:48:45.595Z,6.70
2019-01-17T02:51:15.791Z,6.70
2019-01-17T02:53:45.969Z,6.80
2019-01-17T02:56:16.189Z,6.90
2019-01-17T02:58:46.432Z,6.80
2019-01-17T03:01:16.601Z,6.80
2019-01-17T03:03:46.758Z,6.90
2019-01-17T03:06:16.946Z,7.00
2019-01-17T03:08:47.117Z,7.10
2019-01-17T03:11:17.398Z,7.10
2019-01-17T03:13:47.535Z,7.20
2019-01-17T03:16:17.716Z,7.30
2019-01-17T03:18:47.892Z,7.40
2019-01-17T03:21:18.076Z,7.50
2019-01-17T03:23:48.320Z,7.60
2019-01-17T03:26:18.496Z,7.60
2019-01-17T03:28:48.728Z,7.60
2019-01-17T03:31:18.907Z,7.60
2019-01-17T03:33:49.137Z,7.60
2019-01-17T03:36:19.411Z,7.60
2019-01-17T03:38:49.579Z,7.60
2019-01-17T03:41:19.764Z,7.60
2019-01-17T03:43:49.927Z,7.50
2019-01-17T03:46:20.093Z,7.50
2019-01-17T03:48:50.350Z,7.50
2019-01-17T03:51:20.543Z,7.60
2019-01-17T03:53:50.769Z,7.60
2019-01-17T03:56:21.708Z,7.60
2019-01-17T03:58:52.431Z,7.70
2019-01-17T04:01:22.614Z,7.70
2019-01-17T04:03:52.890Z,7.70
2019-01-17T04:06:23.092Z,7.70
2019-01-17T04:08:53.269Z,7.70
2019-01-17T04:11:23.532Z,7.70
2019-01-17T04:13:53.808Z,7.70
2019-01-17T04:16:24.060Z,7.80
2019-01-17T04:18:54.306Z,7.80
2019-01-17T04:21:24.525Z,7.90
2019-01-17T04:23:54.788Z,7.90
2019-01-17T04:26:24.941Z,7.80
2019-01-17T04:28:55.123Z,7.90
2019-01-17T04:31:25.317Z,7.90
2019-01-17T04:33:55.521Z,7.90
2019-01-17T04:36:25.825Z,7.90
2019-01-17T04:38:56.025Z,8.00
2019-01-17T04:41:26.252Z,8.00
2019-01-17T04:43:56.483Z,8.00
2019-01-17T04:46:26.725Z,8.00
2019-01-17T04:48:56.975Z,7.90
2019-01-17T04:51:27.132Z,8.00
2019-01-17T04:53:57.485Z,8.00
2019-01-17T04:56:27.748Z,7.90
2019-01-17T04:58:57.934Z,8.00
2019-01-17T05:01:28.099Z,8.00
2019-01-17T05:03:58.254Z,8.00
2019-01-17T05:06:28.435Z,8.00
2019-01-17T05:08:58.629Z,8.00
2019-01-17T05:11:28.908Z,8.10
2019-01-17T05:13:59.092Z,8.10
2019-01-17T05:16:29.340Z,8.10
2019-01-17T05:18:59.529Z,8.20
2019-01-17T05:21:29.680Z,8.20
2019-01-17T05:23:59.957Z,8.10
2019-01-17T05:26:30.262Z,8.20
2019-01-17T05:29:00.421Z,8.20
2019-01-17T05:31:30.717Z,8.20
2019-01-17T05:34:00.958Z,8.10
2019-01-17T05:36:31.140Z,8.10
2019-01-17T05:39:01.398Z,8.10
2019-01-17T05:41:31.585Z,8.10
2019-01-17T05:44:01.846Z,8.10
2019-01-17T05:46:32.120Z,8.10
2019-01-17T05:49:02.304Z,8.10
2019-01-17T05:51:32.590Z,8.10
2019-01-17T05:54:02.868Z,8.10
2019-01-17T05:56:33.154Z,8.10
2019-01-17T05:59:03.377Z,8.10
2019-01-17T06:01:33.585Z,8.10
2019-01-17T06:04:03.764Z,8.10
2019-01-17T06:06:34.104Z,8.20
2019-01-17T06:09:06.709Z,8.20
2019-01-17T06:11:36.886Z,8.30
2019-01-17T06:14:07.076Z,8.30
2019-01-17T06:16:37.293Z,8.30
2019-01-17T06:19:07.573Z,8.40
2019-01-17T06:21:37.784Z,8.40
2019-01-17T06:24:07.983Z,8.30
2019-01-17T06:26:38.257Z,8.40
2019-01-17T06:29:08.513Z,8.30
2019-01-17T06:31:38.808Z,8.40
2019-01-17T06:34:09.042Z,8.40
2019-01-17T06:36:39.309Z,8.40
2019-01-17T06:39:09.752Z,8.30
2019-01-17T06:41:39.929Z,8.40
2019-01-17T06:44:10.252Z,8.40
2019-01-17T06:46:40.555Z,8.40
2019-01-17T06:49:10.755Z,8.50
2019-01-17T06:51:41.069Z,8.40
2019-01-17T06:54:11.328Z,8.40
2019-01-17T06:56:41.519Z,8.50
2019-01-17T06:59:11.705Z,8.50
2019-01-17T07:01:41.967Z,8.50
2019-01-17T07:04:12.247Z,8.50
2019-01-17T07:06:42.480Z,8.50
2019-01-17T07:09:12.721Z,8.60
2019-01-17T07:11:42.898Z,8.60
2019-01-17T07:14:13.153Z,8.60
2019-01-17T07:16:43.324Z,8.70
2019-01-17T07:19:13.559Z,8.70
2019-01-17T07:21:43.748Z,8.70
2019-01-17T07:24:13.993Z,8.70
2019-01-17T07:26:44.229Z,8.70
2019-01-17T07:29:14.405Z,8.70
2019-01-17T07:31:44.577Z,8.80
2019-01-17T07:34:14.872Z,8.80
2019-01-17T07:36:45.072Z,8.80
2019-01-17T07:39:15.354Z,8.80
2019-01-17T07:41:45.532Z,8.80
2019-01-17T07:44:15.705Z,8.80
2019-01-17T07:46:45.884Z,8.80
2019-01-17T07:49:16.046Z,8.80
2019-01-17T07:51:46.249Z,8.80
2019-01-17T07:54:16.445Z,8.80
2019-01-17T07:56:46.634Z,8.90
2019-01-17T07:59:16.808Z,8.80
2019-01-17T08:01:47.156Z,8.80
2019-01-17T08:04:17.328Z,8.80
2019-01-17T08:06:47.628Z,8.80
2019-01-17T08:09:17.920Z,8.80
2019-01-17T08:11:48.117Z,8.80
2019-01-17T08:14:18.379Z,8.90
2019-01-17T08:16:48.596Z,8.90
2019-01-17T08:19:18.826Z,9.00
2019-01-17T08:21:49.031Z,9.00
2019-01-17T08:24:19.275Z,9.00
2019-01-17T08:26:49.481Z,9.00
2019-01-17T08:29:19.796Z,8.90
2019-01-17T08:31:50.153Z,8.90
2019-01-17T08:34:20.404Z,8.90
2019-01-17T08:36:50.578Z,8.90
2019-01-17T08:39:20.835Z,8.90
2019-01-17T08:41:51.099Z,8.90
2019-01-17T08:44:21.264Z,8.90
2019-01-17T08:46:51.452Z,8.90
2019-01-17T08:49:21.645Z,9.00
2019-01-17T08:51:51.910Z,9.00
2019-01-17T08:54:22.173Z,9.00
2019-01-17T08:56:52.363Z,9.00
2019-01-17T08:59:22.619Z,9.10
2019-01-17T09:01:52.884Z,9.10
2019-01-17T09:04:23.124Z,9.00
2019-01-17T09:06:53.450Z,9.00
2019-01-17T09:09:23.702Z,9.10
2019-01-17T09:11:53.909Z,9.10
2019-01-17T09:14:24.149Z,9.20
2019-01-17T09:16:54.407Z,9.10
2019-01-17T09:19:24.655Z,9.10
2019-01-17T09:21:54.860Z,9.10
2019-01-17T09:24:25.116Z,9.10
2019-01-17T09:26:55.402Z,9.20
2019-01-17T09:29:25.654Z,9.30
2019-01-17T09:31:55.837Z,9.20
2019-01-17T09:34:26.034Z,9.20
2019-01-17T09:36:56.308Z,9.20
2019-01-17T09:39:26.581Z,9.20
2019-01-17T09:41:56.823Z,9.40
2019-01-17T09:44:27.104Z,9.40
2019-01-17T09:46:57.265Z,9.50
2019-01-17T09:49:27.545Z,9.50
2019-01-17T09:51:57.733Z,9.50
2019-01-17T09:54:27.945Z,9.30
2019-01-17T09:56:58.204Z,9.30
2019-01-17T09:59:28.480Z,9.30
2019-01-17T10:01:58.705Z,9.30
2019-01-17T10:04:28.883Z,9.30
2019-01-17T10:06:59.140Z,9.40
2019-01-17T10:09:29.459Z,9.50
2019-01-17T10:11:59.640Z,9.50
2019-01-17T10:14:29.821Z,9.50
2019-01-17T10:17:19.223Z,9.40
2019-01-17T10:20:06.674Z,9.30
2019-01-17T10:23:03.824Z,9.40
2019-01-17T10:26:21.003Z,9.40
2019-01-17T10:29:08.624Z,9.40
2019-01-17T10:31:59.668Z,9.30
2019-01-17T10:35:16.290Z,9.30
2019-01-17T10:38:28.261Z,9.30
2019-01-17T10:41:25.301Z,9.20
2019-01-17T10:44:12.851Z,9.20
2019-01-17T10:47:41.999Z,9.20
2019-01-17T10:50:25.732Z,9.20
2019-01-17T10:53:14.287Z,9.10
2019-01-17T10:56:15.564Z,9.10
2019-01-17T10:58:52.066Z,9.10
2019-01-17T11:02:01.830Z,9.10
2019-01-17T11:04:58.142Z,9.00
2019-01-17T11:08:04.377Z,9.10
2019-01-17T11:11:15.797Z,9.10
2019-01-17T11:14:23.228Z,9.20
2019-01-17T11:18:01.549Z,9.20
2019-01-17T11:21:12.877Z,9.30
2019-01-17T11:24:10.276Z,9.40
2019-01-17T11:27:24.156Z,9.40
2019-01-17T11:30:32.880Z,9.40
2019-01-17T11:33:31.205Z,9.60
2019-01-17T11:36:30.947Z,9.60
2019-01-17T11:39:35.146Z,9.60
2019-01-17T11:42:27.573Z,9.70
2019-01-17T11:45:16.688Z,9.80
2019-01-17T11:48:18.412Z,9.70
2019-01-17T11:51:25.340Z,9.60
2019-01-17T11:54:27.491Z,9.50
2019-01-17T11:57:50.800Z,9.50
2019-01-17T12:01:05.849Z,9.50
2019-01-17T12:04:12.706Z,9.50
2019-01-17T12:06:43.026Z,9.40
2019-01-17T12:09:13.221Z,9.30
2019-01-17T12:11:43.514Z,9.10
2019-01-17T12:14:13.828Z,9.10
2019-01-17T12:16:44.014Z,9.00
2019-01-17T12:19:14.286Z,9.00
2019-01-17T12:21:44.499Z,9.00
2019-01-17T12:24:14.680Z,8.90
2019-01-17T12:26:47.514Z,8.90
2019-01-17T12:29:16.813Z,8.90
2019-01-17T12:31:47.081Z,8.90
2019-01-17T12:34:17.357Z,9.00
2019-01-17T12:36:47.692Z,9.00
2019-01-17T12:39:17.930Z,9.10
2019-01-17T12:41:48.146Z,9.20
2019-01-17T12:44:18.396Z,9.30
2019-01-17T12:46:48.669Z,9.30
2019-01-17T12:49:18.885Z,9.30
2019-01-17T12:51:49.147Z,9.30
2019-01-17T12:54:19.482Z,9.20
2019-01-17T12:56:54.002Z,9.20
2019-01-17T12:59:21.737Z,9.20
2019-01-17T13:01:52.048Z,9.30
2019-01-17T13:04:22.240Z,9.30
2019-01-17T13:06:52.469Z,9.40
2019-01-17T13:09:22.728Z,9.40
2019-01-17T13:11:53.016Z,9.40
2019-01-17T13:14:23.205Z,9.30
2019-01-17T13:16:53.493Z,9.20
2019-01-17T13:19:23.721Z,9.30
2019-01-17T13:21:54.019Z,9.20
2019-01-17T13:24:24.279Z,9.10
2019-01-17T13:27:00.681Z,9.10
2019-01-17T13:29:27.274Z,9.10
2019-01-17T13:31:57.583Z,9.10
2019-01-17T13:34:27.834Z,9.20
2019-01-17T13:36:58.131Z,9.30
2019-01-17T13:39:28.440Z,9.40
2019-01-17T13:41:59.000Z,9.20
2019-01-17T13:44:29.304Z,9.00
2019-01-17T13:46:59.621Z,9.10
2019-01-17T13:49:29.803Z,9.10
2019-01-17T13:52:00.104Z,9.00
2019-01-17T13:54:30.408Z,8.90
2019-01-17T13:57:07.313Z,8.80
2019-01-17T13:59:32.672Z,9.10
2019-01-17T14:02:02.972Z,9.40
2019-01-17T14:04:33.255Z,9.40
2019-01-17T14:07:03.476Z,9.40
2019-01-17T14:09:33.748Z,9.40
2019-01-17T14:12:04.135Z,9.30
2019-01-17T14:14:34.399Z,9.10
2019-01-17T14:17:04.755Z,8.90
2019-01-17T14:19:34.982Z,8.90
2019-01-17T14:22:05.176Z,9.00
2019-01-17T14:24:35.379Z,8.90
2019-01-17T14:27:05.762Z,8.90
2019-01-17T14:29:35.988Z,8.90
2019-01-17T14:32:06.282Z,8.90
2019-01-17T14:34:36.568Z,8.70
2019-01-17T14:37:06.824Z,8.60
2019-01-17T14:39:37.017Z,8.70
2019-01-17T14:42:07.278Z,8.80
2019-01-17T14:44:37.538Z,8.80
2019-01-17T14:47:07.876Z,8.70
2019-01-17T14:49:38.152Z,8.60
2019-01-17T14:52:08.456Z,8.60
2019-01-17T14:54:38.717Z,8.60
2019-01-17T14:57:09.025Z,8.70
2019-01-17T14:59:39.300Z,8.60
2019-01-17T15:02:09.517Z,8.50
2019-01-17T15:04:39.725Z,8.50
2019-01-17T15:07:09.984Z,8.40
2019-01-17T15:09:40.271Z,8.50
2019-01-17T15:12:10.582Z,8.60
2019-01-17T15:14:40.860Z,8.60
2019-01-17T15:17:11.158Z,8.60
2019-01-17T15:19:41.456Z,8.60
2019-01-17T15:22:11.737Z,8.60
2019-01-17T15:24:42.009Z,8.50
2019-01-17T15:27:12.300Z,8.40
2019-01-17T15:29:42.601Z,8.30
2019-01-17T15:32:12.875Z,8.20
2019-01-17T15:34:43.227Z,8.20
2019-01-17T15:37:13.505Z,8.20
2019-01-17T15:39:43.823Z,8.10
2019-01-17T15:42:14.109Z,8.00
2019-01-17T15:44:44.394Z,8.10
2019-01-17T15:47:14.707Z,8.10
2019-01-17T15:49:44.976Z,8.10
2019-01-17T15:52:15.274Z,8.00
2019-01-17T15:54:45.544Z,8.00
2019-01-17T15:57:15.820Z,8.00
2019-01-17T15:59:46.094Z,8.00
2019-01-17T16:02:16.419Z,8.10
2019-01-17T16:04:46.603Z,8.00
2019-01-17T16:07:16.864Z,8.10
2019-01-17T16:09:47.179Z,8.00
2019-01-17T16:12:17.595Z,7.90
2019-01-17T16:14:47.794Z,8.00
2019-01-17T16:17:18.079Z,8.00
2019-01-17T16:19:48.317Z,8.00
2019-01-17T16:22:18.605Z,7.90
2019-01-17T16:24:48.892Z,7.80
2019-01-17T16:27:19.216Z,7.80
2019-01-17T16:29:49.412Z,7.90
2019-01-17T16:32:19.690Z,7.80
2019-01-17T16:34:49.885Z,7.70
2019-01-17T16:37:20.178Z,7.70
2019-01-17T16:39:50.381Z,7.60
2019-01-17T16:42:20.658Z,7.60
2019-01-17T16:44:51.005Z,7.50
2019-01-17T16:47:21.248Z,7.40
2019-01-17T16:49:51.544Z,7.40
2019-01-17T16:52:21.750Z,7.30
2019-01-17T16:54:52.055Z,7.20
2019-01-17T16:57:22.231Z,7.10
2019-01-17T16:59:52.559Z,7.20
2019-01-17T17:02:22.945Z,7.20
2019-01-17T17:04:53.294Z,7.20
2019-01-17T17:07:23.555Z,7.20
2019-01-17T17:09:53.780Z,7.20
2019-01-17T17:12:24.064Z,7.20
2019-01-17T17:14:54.300Z,7.10
2019-01-17T17:17:24.577Z,7.10
2019-01-17T17:19:54.903Z,7.20
2019-01-17T17:22:25.236Z,7.30
2019-01-17T17:24:55.539Z,7.40
2019-01-17T17:27:25.857Z,7.50
2019-01-17T17:29:56.175Z,7.60
2019-01-17T17:32:26.464Z,7.60
2019-01-17T17:34:56.746Z,7.20
2019-01-17T17:37:27.056Z,6.80
2019-01-17T17:39:57.376Z,6.70
2019-01-17T17:42:27.690Z,6.40
2019-01-17T17:44:57.978Z,6.20
2019-01-17T17:47:28.255Z,6.00
2019-01-17T17:49:58.982Z,5.90
2019-01-17T17:52:29.280Z,6.00
2019-01-17T17:54:59.658Z,6.10
2019-01-17T17:57:29.858Z,6.10
2019-01-17T18:00:00.234Z,6.10
2019-01-17T18:02:34.731Z,6.10
2019-01-17T18:05:06.151Z,6.10
2019-01-17T18:07:36.376Z,6.20
2019-01-17T18:10:08.565Z,6.20
2019-01-17T18:12:38.880Z,6.30
2019-01-17T18:15:11.650Z,6.30
2019-01-17T18:17:42.204Z,6.30
2019-01-17T18:20:13.389Z,6.30
2019-01-17T18:22:43.764Z,6.30
2019-01-17T18:25:14.497Z,6.40
2019-01-17T18:27:44.781Z,6.40
2019-01-17T18:30:17.528Z,6.40
2019-01-17T18:32:51.535Z,6.20
2019-01-17T18:35:23.153Z,6.10
2019-01-17T18:37:53.399Z,6.00
2019-01-17T18:40:23.838Z,6.10
2019-01-17T18:42:54.106Z,6.20
2019-01-17T18:45:24.463Z,6.00
2019-01-17T18:47:54.895Z,6.00
2019-01-17T18:50:27.394Z,6.00
2019-01-17T18:52:57.670Z,5.90
2019-01-17T18:55:27.973Z,6.10
2019-01-17T18:57:58.273Z,6.00
2019-01-17T19:00:35.242Z,6.00
2019-01-17T19:03:08.495Z,6.00
2019-01-17T19:05:38.848Z,6.00
2019-01-17T19:08:09.143Z,6.10
2019-01-17T19:10:39.488Z,6.10
2019-01-17T19:13:09.799Z,6.10
2019-01-17T19:15:40.122Z,6.10
2019-01-17T19:18:10.467Z,6.00
2019-01-17T19:20:40.800Z,5.90
2019-01-17T19:23:11.100Z,5.90
2019-01-17T19:25:41.389Z,5.90
2019-01-17T19:28:11.678Z,6.00
2019-01-17T19:30:42.354Z,6.00
2019-01-17T19:33:12.610Z,6.00
2019-01-17T19:35:42.940Z,6.00
2019-01-17T19:38:13.273Z,5.90
2019-01-17T19:40:43.569Z,5.90
2019-01-17T19:43:13.938Z,6.00
2019-01-17T19:45:44.285Z,6.00
2019-01-17T19:48:14.580Z,5.90
2019-01-17T19:50:44.906Z,5.80
2019-01-17T19:53:15.153Z,5.80
2019-01-17T19:55:47.793Z,5.70
2019-01-17T19:58:18.207Z,5.70
2019-01-17T20:00:48.404Z,5.80
2019-01-17T20:03:18.733Z,5.80
2019-01-17T20:05:49.085Z,5.80
2019-01-17T20:08:19.510Z,6.00
2019-01-17T20:10:49.862Z,6.00
2019-01-17T20:13:20.108Z,5.90
2019-01-17T20:15:50.421Z,5.90
2019-01-17T20:18:20.623Z,6.00
2019-01-17T20:20:52.739Z,6.00
2019-01-17T20:23:23.041Z,6.20
2019-01-17T20:25:55.894Z,6.10
2019-01-17T20:28:26.199Z,6.20
2019-01-17T20:30:56.541Z,6.10
2019-01-17T20:33:26.938Z,6.30
2019-01-17T20:35:57.281Z,6.40
2019-01-17T20:38:28.205Z,6.40
2019-01-17T20:40:58.489Z,6.50
2019-01-17T20:43:28.832Z,6.50
2019-01-17T20:45:59.254Z,6.20
2019-01-17T20:48:29.628Z,6.00
2019-01-17T20:50:59.965Z,6.00
2019-01-17T20:53:32.520Z,5.70
2019-01-17T20:56:02.793Z,5.40
2019-01-17T20:58:33.120Z,5.30
2019-01-17T21:01:31.733Z,5.20
2019-01-17T21:04:02.085Z,5.20
2019-01-17T21:06:32.448Z,5.20
2019-01-17T21:09:03.989Z,5.40
2019-01-17T21:11:34.329Z,5.50
2019-01-17T21:14:04.807Z,5.60
2019-01-17T21:16:35.028Z,5.60
2019-01-17T21:19:05.388Z,5.60
2019-01-17T21:21:35.606Z,5.50
2019-01-17T21:24:05.890Z,5.50
2019-01-17T21:26:36.286Z,5.60
2019-01-17T21:29:08.071Z,5.60
2019-01-17T21:31:38.405Z,5.60
2019-01-17T21:34:08.940Z,5.60
2019-01-17T21:36:39.338Z,5.70
2019-01-17T21:39:09.835Z,5.80
2019-01-17T21:41:40.150Z,5.80
2019-01-17T21:44:10.537Z,5.70
2019-01-17T21:46:40.800Z,5.70
2019-01-17T21:49:11.190Z,5.70
2019-01-17T21:51:41.493Z,5.70
2019-01-17T21:54:12.060Z,5.70
2019-01-17T21:56:42.346Z,5.70
2019-01-17T21:59:12.777Z,5.70
2019-01-17T22:01:43.118Z,5.50
2019-01-17T22:04:13.389Z,5.50
2019-01-17T22:06:43.685Z,5.40
2019-01-17T22:09:13.933Z,5.30
2019-01-17T22:11:44.236Z,5.50
2019-01-17T22:14:14.469Z,5.50
2019-01-17T22:16:44.681Z,5.60
2019-01-17T22:19:14.968Z,5.70
2019-01-17T22:21:45.249Z,5.70
2019-01-17T22:24:15.540Z,5.70
2019-01-17T22:26:45.819Z,5.30
2019-01-17T22:29:16.161Z,5.20
2019-01-17T22:31:46.440Z,4.90
2019-01-17T22:34:16.719Z,4.90
2019-01-17T22:36:47.056Z,4.90
2019-01-17T22:39:17.389Z,4.90
2019-01-17T22:41:47.683Z,4.70
2019-01-17T22:44:18.035Z,4.70
2019-01-17T22:46:48.300Z,4.90
2019-01-17T22:49:18.612Z,4.80
2019-01-17T22:51:48.841Z,4.90
2019-01-17T22:54:19.192Z,4.90
2019-01-17T22:56:49.412Z,5.10
2019-01-17T22:59:19.710Z,5.10
2019-01-17T23:01:49.880Z,5.10
2019-01-17T23:04:20.201Z,5.00
2019-01-17T23:06:50.497Z,4.90
2019-01-17T23:09:20.817Z,4.80
2019-01-17T23:11:51.094Z,4.80
2019-01-17T23:14:21.416Z,4.80
2019-01-17T23:16:51.790Z,4.70
2019-01-17T23:19:22.076Z,4.80
2019-01-17T23:21:52.428Z,4.60
2019-01-17T23:24:22.656Z,4.60
2019-01-17T23:26:58.356Z,4.60
2019-01-17T23:29:28.655Z,4.60
2019-01-17T23:31:58.933Z,4.70
2019-01-17T23:34:29.152Z,4.60
2019-01-17T23:36:59.485Z,4.50
2019-01-17T23:39:29.719Z,4.50
2019-01-17T23:42:00.000Z,4.60
2019-01-17T23:44:31.500Z,4.60
2019-01-17T23:47:01.651Z,4.70
2019-01-17T23:49:32.038Z,4.70
2019-01-17T23:52:02.269Z,4.60
2019-01-17T23:54:32.562Z,4.50
2019-01-17T23:57:02.853Z,4.50
2019-01-17T23:59:33.204Z,4.40
